createdAt,value
2022-12-18T00:01:41.581Z,1.30
2022-12-18T00:04:43.690Z,1.21
2022-12-18T00:07:45.603Z,1.45
2022-12-18T00:10:47.424Z,1.46
2022-12-18T00:13:49.441Z,1.28
2022-12-18T00:16:51.265Z,1.08
2022-12-18T00:19:53.096Z,0.68
2022-12-18T00:22:55.108Z,0.85
2022-12-18T00:26:00.559Z,1.24
2022-12-18T00:29:03.935Z,1.07
2022-12-18T00:32:07.624Z,0.65
2022-12-18T00:35:09.495Z,1.72
2022-12-18T00:38:11.288Z,0.18
2022-12-18T00:41:14.008Z,0.50
2022-12-18T00:44:16.500Z,-0.08
2022-12-18T00:47:18.336Z,0.44
2022-12-18T00:50:21.199Z,-0.45
2022-12-18T00:53:23.068Z,-0.47
2022-12-18T00:56:24.977Z,-0.50
2022-12-18T00:59:26.856Z,-0.47
2022-12-18T01:02:28.749Z,-0.45
2022-12-18T01:05:30.804Z,-0.12
2022-12-18T01:08:32.648Z,1.02
2022-12-18T01:11:34.603Z,0.33
2022-12-18T01:14:37.087Z,0.15
2022-12-18T01:17:38.945Z,0.17
2022-12-18T01:20:40.772Z,0.09
2022-12-18T01:23:42.961Z,0.31
2022-12-18T01:26:44.924Z,0.18
2022-12-18T01:29:46.734Z,0.46
2022-12-18T01:32:48.830Z,1.38
2022-12-18T01:35:50.695Z,0.75
2022-12-18T01:38:52.569Z,0.78
2022-12-18T01:42:03.362Z,1.58
2022-12-18T01:45:05.256Z,0.74
2022-12-18T01:48:07.564Z,1.27
2022-12-18T01:51:09.929Z,1.95
2022-12-18T01:54:11.728Z,1.54
2022-12-18T01:57:13.545Z,1.20
2022-12-18T02:00:16.485Z,0.60
2022-12-18T02:03:18.365Z,-0.57
2022-12-18T02:06:22.028Z,0.57
2022-12-18T02:09:29.373Z,1.09
2022-12-18T02:12:34.480Z,1.26
2022-12-18T02:15:49.495Z,0.91
2022-12-18T02:18:52.159Z,0.94
2022-12-18T02:22:03.246Z,1.23
2022-12-18T02:25:14.446Z,1.86
2022-12-18T02:28:16.649Z,1.87
2022-12-18T02:31:20.280Z,1.86
2022-12-18T02:34:22.714Z,2.09
2022-12-18T02:37:24.569Z,1.93
2022-12-18T02:40:27.142Z,0.76
2022-12-18T02:43:29.006Z,0.40
2022-12-18T02:46:38.212Z,0.85
2022-12-18T02:49:58.341Z,0.81
2022-12-18T02:53:15.566Z,1.27
2022-12-18T02:56:19.362Z,1.83
2022-12-18T02:59:24.983Z,0.84
2022-12-18T03:02:47.464Z,0.73
2022-12-18T03:05:57.998Z,0.66
2022-12-18T03:09:01.146Z,0.90
2022-12-18T03:12:24.176Z,1.59
2022-12-18T03:15:33.079Z,0.60
2022-12-18T03:18:39.193Z,0.93
2022-12-18T03:21:45.094Z,1.40
2022-12-18T03:24:47.070Z,1.57
2022-12-18T03:27:50.300Z,-0.85
2022-12-18T03:30:53.863Z,-0.24
2022-12-18T03:33:57.011Z,0.58
2022-12-18T03:36:58.863Z,1.32
2022-12-18T03:40:00.724Z,1.25
2022-12-18T03:43:04.720Z,1.07
2022-12-18T03:46:08.378Z,0.57
2022-12-18T03:49:11.600Z,0.68
2022-12-18T03:52:15.342Z,0.24
2022-12-18T03:55:17.749Z,0.05
2022-12-18T03:58:21.432Z,1.09
2022-12-18T04:01:24.412Z,1.47
2022-12-18T04:04:26.338Z,0.95
2022-12-18T04:07:28.199Z,1.20
2022-12-18T04:10:30.100Z,-0.11
2022-12-18T04:13:38.836Z,-0.02
2022-12-18T04:16:40.918Z,0.11
2022-12-18T04:19:42.752Z,0.48
2022-12-18T04:22:44.626Z,1.01
2022-12-18T04:25:47.840Z,1.22
2022-12-18T04:28:49.668Z,0.59
2022-12-18T04:31:51.476Z,0.62
2022-12-18T04:34:53.472Z,0.61
2022-12-18T04:37:55.329Z,1.03
2022-12-18T04:40:57.135Z,1.03
2022-12-18T04:43:58.964Z,0.71
2022-12-18T04:47:00.793Z,-0.27
2022-12-18T04:50:02.676Z,0.46
2022-12-18T04:53:04.485Z,0.65
2022-12-18T04:56:10.546Z,-0.53
2022-12-18T04:59:12.367Z,-0.40
2022-12-18T05:02:14.296Z,-0.40
2022-12-18T05:05:16.349Z,-0.41
2022-12-18T05:08:18.417Z,-0.14
2022-12-18T05:11:20.296Z,0.19
2022-12-18T05:14:22.144Z,0.54
2022-12-18T05:17:23.939Z,0.43
2022-12-18T05:20:25.860Z,0.52
2022-12-18T05:23:28.141Z,0.45
2022-12-18T05:26:29.985Z,-0.25
2022-12-18T05:29:31.880Z,-0.27
2022-12-18T05:32:33.790Z,-0.55
2022-12-18T05:35:35.576Z,0.08
2022-12-18T05:38:38.014Z,-0.24
2022-12-18T05:41:40.052Z,-0.24
2022-12-18T05:44:41.894Z,-0.45
2022-12-18T05:47:43.707Z,-0.31
2022-12-18T05:50:48.883Z,-0.45
2022-12-18T05:53:50.743Z,-0.93
2022-12-18T05:56:52.739Z,-0.82
2022-12-18T05:59:54.764Z,-0.68
2022-12-18T06:02:56.873Z,0.55
2022-12-18T06:05:58.782Z,0.06
2022-12-18T06:09:02.366Z,0.33
2022-12-18T06:12:04.524Z,0.32
2022-12-18T06:15:06.632Z,-0.25
2022-12-18T06:18:08.454Z,0.14
2022-12-18T06:21:10.312Z,0.16
2022-12-18T06:24:12.152Z,0.63
2022-12-18T06:27:14.167Z,0.54
2022-12-18T06:30:16.122Z,-0.12
2022-12-18T06:33:18.044Z,-0.06
2022-12-18T06:36:20.671Z,0.06
2022-12-18T06:39:22.519Z,-0.09
2022-12-18T06:42:25.063Z,-1.24
2022-12-18T06:45:26.934Z,-2.29
2022-12-18T06:48:29.544Z,-1.92
2022-12-18T06:51:31.668Z,-1.33
2022-12-18T06:54:33.482Z,-1.58
2022-12-18T06:57:35.376Z,-1.10
2022-12-18T07:00:37.245Z,-0.51
2022-12-18T07:03:42.716Z,-0.50
2022-12-18T07:06:44.918Z,-0.07
2022-12-18T07:09:46.736Z,-0.32
2022-12-18T07:12:48.517Z,-0.68
2022-12-18T07:15:50.348Z,0.09
2022-12-18T07:18:52.349Z,0.59
2022-12-18T07:21:54.249Z,-0.89
2022-12-18T07:24:56.308Z,-0.80
2022-12-18T07:27:58.196Z,-0.40
2022-12-18T07:31:04.053Z,-1.01
2022-12-18T07:34:05.901Z,-0.03
2022-12-18T07:37:07.758Z,-0.30
2022-12-18T07:40:09.898Z,-0.55
2022-12-18T07:43:11.767Z,-0.17
2022-12-18T07:46:17.221Z,0.55
2022-12-18T07:49:19.104Z,0.49
2022-12-18T07:52:25.775Z,0.57
2022-12-18T07:55:28.501Z,-0.74
2022-12-18T07:58:31.464Z,0.62
2022-12-18T08:01:34.112Z,-0.09
2022-12-18T08:04:36.040Z,-0.70
2022-12-18T08:07:37.988Z,-1.23
2022-12-18T08:10:40.325Z,0.32
2022-12-18T08:13:42.413Z,0.87
2022-12-18T08:16:44.511Z,0.98
2022-12-18T08:19:46.327Z,0.90
2022-12-18T08:22:48.350Z,0.46
2022-12-18T08:25:50.973Z,0.10
2022-12-18T08:28:53.006Z,0.46
2022-12-18T08:31:54.867Z,0.94
2022-12-18T08:34:56.771Z,1.55
2022-12-18T08:37:58.646Z,1.34
2022-12-18T08:41:01.439Z,1.00
2022-12-18T08:44:22.227Z,0.96
2022-12-18T08:47:24.115Z,0.81
2022-12-18T08:50:26.047Z,0.36
2022-12-18T08:53:32.697Z,0.47
2022-12-18T08:56:37.280Z,0.47
2022-12-18T08:59:39.159Z,0.60
2022-12-18T09:02:41.038Z,0.68
2022-12-18T09:05:43.140Z,1.25
2022-12-18T09:08:45.300Z,1.42
2022-12-18T09:11:47.160Z,2.30
2022-12-18T09:14:48.971Z,2.44
2022-12-18T09:17:51.053Z,1.65
2022-12-18T09:20:53.931Z,2.01
2022-12-18T09:23:56.129Z,2.25
2022-12-18T09:26:58.250Z,1.53
2022-12-18T09:30:00.114Z,1.54
2022-12-18T09:33:01.976Z,1.63
2022-12-18T09:36:04.759Z,2.62
2022-12-18T09:39:08.846Z,2.41
2022-12-18T09:42:14.026Z,2.74
2022-12-18T09:45:15.880Z,2.42
2022-12-18T09:48:28.954Z,1.88
2022-12-18T09:51:36.396Z,2.47
2022-12-18T09:54:41.236Z,1.86
2022-12-18T09:57:50.666Z,3.32
2022-12-18T10:00:53.175Z,3.45
2022-12-18T10:03:55.313Z,2.36
2022-12-18T10:07:08.794Z,2.36
2022-12-18T10:10:23.876Z,2.69
2022-12-18T10:13:38.202Z,3.31
2022-12-18T10:17:01.157Z,3.08
2022-12-18T10:20:10.085Z,3.47
2022-12-18T10:23:18.551Z,3.62
2022-12-18T10:26:20.429Z,3.69
2022-12-18T10:29:23.510Z,4.14
2022-12-18T10:32:29.400Z,3.36
2022-12-18T10:35:31.220Z,2.07
2022-12-18T10:38:33.186Z,2.90
2022-12-18T10:41:35.040Z,3.51
2022-12-18T10:44:36.897Z,3.99
2022-12-18T10:47:43.149Z,3.96
2022-12-18T10:51:10.185Z,3.86
2022-12-18T10:54:22.836Z,4.70
2022-12-18T10:57:27.696Z,5.21
2022-12-18T11:00:30.929Z,4.35
2022-12-18T11:03:32.948Z,3.69
2022-12-18T11:06:34.934Z,4.71
2022-12-18T11:09:38.229Z,4.61
2022-12-18T11:12:40.111Z,4.71
2022-12-18T11:15:41.974Z,5.04
2022-12-18T11:18:44.112Z,4.77
2022-12-18T11:21:46.040Z,5.09
2022-12-18T11:28:46.391Z,5.68
2022-12-18T11:31:48.300Z,4.87
2022-12-18T11:34:55.952Z,6.52
2022-12-18T11:38:03.966Z,7.30
2022-12-18T11:41:20.811Z,6.07
2022-12-18T11:44:26.430Z,6.77
2022-12-18T11:47:40.478Z,7.26
2022-12-18T11:50:45.485Z,7.89
2022-12-18T11:53:47.316Z,8.28
2022-12-18T11:56:50.430Z,9.78
2022-12-18T12:00:12.623Z,9.48
2022-12-18T12:03:23.600Z,9.47
2022-12-18T12:06:43.655Z,10.07
2022-12-18T12:10:00.794Z,13.05
2022-12-18T12:13:21.349Z,12.98
2022-12-18T12:16:43.218Z,13.21
2022-12-18T12:19:51.058Z,13.91
2022-12-18T12:22:58.080Z,15.26
2022-12-18T12:26:00.443Z,15.69
2022-12-18T12:29:04.299Z,14.64
2022-12-18T12:32:08.522Z,14.84
2022-12-18T12:35:36.801Z,14.68
2022-12-18T12:38:49.773Z,13.66
2022-12-18T12:42:11.991Z,16.58
2022-12-18T12:45:17.834Z,14.18
2022-12-18T12:48:33.731Z,11.83
2022-12-18T12:51:39.969Z,15.08
2022-12-18T12:54:42.585Z,16.55
2022-12-18T12:57:47.031Z,17.99
2022-12-18T13:01:09.336Z,16.86
2022-12-18T13:04:37.366Z,13.74
2022-12-18T13:07:51.087Z,11.56
2022-12-18T13:11:13.815Z,9.57
2022-12-18T13:14:23.065Z,8.88
2022-12-18T13:17:30.217Z,9.17
2022-12-18T13:20:36.121Z,8.58
2022-12-18T13:23:38.887Z,7.32
2022-12-18T13:26:41.197Z,7.92
2022-12-18T13:29:44.560Z,7.83
2022-12-18T13:32:46.399Z,7.38
2022-12-18T13:35:48.726Z,7.64
2022-12-18T13:39:09.569Z,6.99
2022-12-18T13:42:31.736Z,7.29
2022-12-18T13:45:37.285Z,6.94
2022-12-18T13:48:39.184Z,6.88
2022-12-18T13:51:45.249Z,6.90
2022-12-18T13:54:49.456Z,6.22
2022-12-18T13:57:52.571Z,7.28
2022-12-18T14:00:54.633Z,7.87
2022-12-18T14:04:15.086Z,8.35
2022-12-18T14:07:27.313Z,8.92
2022-12-18T14:10:48.586Z,9.62
2022-12-18T14:13:51.524Z,6.98
2022-12-18T14:16:53.460Z,6.97
2022-12-18T14:19:55.762Z,7.77
2022-12-18T14:22:57.789Z,6.72
2022-12-18T14:26:05.478Z,6.92
2022-12-18T14:29:27.958Z,6.28
2022-12-18T14:32:29.834Z,5.52
2022-12-18T14:35:32.241Z,5.03
2022-12-18T14:38:35.430Z,6.37
2022-12-18T14:41:37.301Z,6.09
2022-12-18T14:44:50.802Z,5.50
2022-12-18T14:47:59.927Z,5.29
2022-12-18T14:51:03.366Z,5.01
2022-12-18T14:54:14.795Z,4.61
2022-12-18T14:57:22.607Z,4.33
2022-12-18T15:00:24.932Z,5.38
2022-12-18T15:03:26.836Z,4.97
2022-12-18T15:06:28.959Z,4.71
2022-12-18T15:09:30.776Z,4.33
2022-12-18T15:12:36.794Z,4.51
2022-12-18T15:15:39.039Z,4.42
2022-12-18T15:18:42.420Z,4.60
2022-12-18T15:21:44.223Z,4.57
2022-12-18T15:24:46.060Z,4.78
2022-12-18T15:27:47.955Z,4.67
2022-12-18T15:31:03.577Z,4.60
2022-12-18T15:34:08.588Z,4.87
2022-12-18T15:37:10.419Z,3.65
2022-12-18T15:40:16.221Z,4.71
2022-12-18T15:43:34.806Z,4.72
2022-12-18T15:46:36.669Z,4.48
2022-12-18T15:49:38.564Z,4.48
2022-12-18T15:52:41.214Z,4.69
2022-12-18T15:56:02.037Z,5.16
2022-12-18T15:59:05.457Z,5.13
2022-12-18T16:02:09.701Z,5.03
2022-12-18T16:05:15.216Z,4.86
2022-12-18T16:08:17.062Z,4.55
2022-12-18T16:11:38.669Z,4.48
2022-12-18T16:14:40.528Z,3.84
2022-12-18T16:17:43.102Z,4.18
2022-12-18T16:20:44.936Z,4.34
2022-12-18T16:23:46.755Z,4.23
2022-12-18T16:26:49.007Z,4.39
2022-12-18T16:29:50.939Z,4.08
2022-12-18T16:32:52.836Z,4.47
2022-12-18T16:35:54.767Z,3.89
2022-12-18T16:38:56.601Z,3.97
2022-12-18T16:41:58.728Z,3.92
2022-12-18T16:45:01.426Z,3.67
2022-12-18T16:48:03.256Z,3.58
2022-12-18T16:51:05.673Z,3.49
2022-12-18T16:54:10.941Z,3.46
2022-12-18T16:57:15.499Z,3.55
2022-12-18T17:00:18.300Z,3.76
2022-12-18T17:03:20.181Z,3.29
2022-12-18T17:06:22.529Z,2.89
2022-12-18T17:09:25.459Z,2.47
2022-12-18T17:12:27.440Z,2.93
2022-12-18T17:15:29.236Z,3.60
2022-12-18T17:18:31.057Z,3.80
2022-12-18T17:21:33.121Z,3.63
2022-12-18T17:24:35.586Z,3.10
2022-12-18T17:27:37.660Z,3.13
2022-12-18T17:30:39.543Z,2.99
2022-12-18T17:33:42.555Z,2.32
2022-12-18T17:36:44.753Z,2.82
2022-12-18T17:39:46.706Z,3.01
2022-12-18T17:42:48.584Z,2.46
2022-12-18T17:45:50.577Z,2.69
2022-12-18T17:48:52.547Z,3.12
2022-12-18T17:51:54.407Z,3.68
2022-12-18T17:54:56.266Z,3.18
2022-12-18T17:57:58.607Z,2.40
2022-12-18T18:01:00.425Z,2.61
2022-12-18T18:04:03.722Z,2.71
2022-12-18T18:07:05.702Z,2.17
2022-12-18T18:10:07.986Z,2.30
2022-12-18T18:13:44.964Z,2.46
2022-12-18T18:16:49.427Z,2.87
2022-12-18T18:19:51.332Z,3.19
2022-12-18T18:22:53.169Z,2.97
2022-12-18T18:25:55.121Z,2.36
2022-12-18T18:28:57.931Z,2.21
2022-12-18T18:32:00.278Z,3.01
2022-12-18T18:35:02.245Z,2.79
2022-12-18T18:38:04.670Z,2.85
2022-12-18T18:41:06.604Z,2.55
2022-12-18T18:44:09.162Z,3.15
2022-12-18T18:47:11.316Z,3.55
2022-12-18T18:50:13.198Z,1.69
2022-12-18T18:53:15.089Z,2.39
2022-12-18T18:56:56.738Z,3.10
2022-12-18T18:59:39.847Z,2.45
2022-12-18T19:02:41.759Z,2.21
2022-12-18T19:05:47.564Z,2.04
2022-12-18T19:08:49.830Z,2.32
2022-12-18T19:12:10.818Z,1.74
2022-12-18T19:15:12.608Z,2.18
2022-12-18T19:18:15.742Z,2.32
2022-12-18T19:21:17.763Z,2.38
2022-12-18T19:24:22.290Z,2.57
2022-12-18T19:27:24.395Z,3.05
2022-12-18T19:30:26.275Z,2.83
2022-12-18T19:33:44.316Z,1.75
2022-12-18T19:36:46.556Z,2.04
2022-12-18T19:39:48.489Z,2.20
2022-12-18T19:42:50.322Z,1.82
2022-12-18T19:45:55.466Z,1.00
2022-12-18T19:48:59.058Z,1.61
2022-12-18T19:52:00.856Z,1.90
2022-12-18T19:55:02.730Z,0.96
2022-12-18T19:58:04.588Z,1.45
2022-12-18T20:01:06.831Z,2.02
2022-12-18T20:04:11.008Z,2.01
2022-12-18T20:07:12.979Z,1.77
2022-12-18T20:10:15.118Z,1.28
2022-12-18T20:13:19.232Z,0.99
2022-12-18T20:16:21.105Z,1.15
2022-12-18T20:19:23.131Z,1.04
2022-12-18T20:22:25.045Z,1.65
2022-12-18T20:25:26.882Z,1.48
2022-12-18T20:28:29.045Z,2.46
2022-12-18T20:31:30.898Z,2.16
2022-12-18T20:34:32.801Z,1.84
2022-12-18T20:37:34.865Z,1.96
2022-12-18T20:40:40.783Z,1.75
2022-12-18T20:43:43.226Z,1.17
2022-12-18T20:46:45.708Z,1.66
2022-12-18T20:49:47.534Z,0.62
2022-12-18T20:52:49.372Z,0.79
2022-12-18T20:55:51.209Z,1.09
2022-12-18T20:58:55.868Z,1.13
2022-12-18T21:01:57.866Z,1.78
2022-12-18T21:05:00.026Z,1.68
2022-12-18T21:08:01.911Z,1.52
2022-12-18T21:11:48.584Z,1.16
2022-12-18T21:14:50.469Z,1.72
2022-12-18T21:17:52.291Z,0.58
2022-12-18T21:20:54.249Z,1.06
2022-12-18T21:23:56.203Z,1.00
2022-12-18T21:26:58.093Z,0.85
2022-12-18T21:30:00.178Z,0.24
2022-12-18T21:33:02.152Z,-0.07
2022-12-18T21:36:05.460Z,0.04
2022-12-18T21:39:07.329Z,-0.16
2022-12-18T21:42:29.469Z,0.20
2022-12-18T21:45:31.371Z,0.22
2022-12-18T21:48:33.606Z,0.66
2022-12-18T21:51:35.662Z,0.14
2022-12-18T21:54:37.531Z,-0.22
2022-12-18T21:57:39.544Z,0.60
2022-12-18T22:00:45.658Z,-0.07
2022-12-18T22:03:50.372Z,-0.32
2022-12-18T22:06:52.522Z,0.27
2022-12-18T22:09:54.380Z,0.79
2022-12-18T22:12:56.225Z,-0.03
2022-12-18T22:15:58.119Z,0.51
2022-12-18T22:18:59.971Z,1.53
2022-12-18T22:22:02.000Z,-0.66
2022-12-18T22:25:03.959Z,-1.08
2022-12-18T22:28:24.295Z,-0.92
2022-12-18T22:31:26.161Z,-0.72
2022-12-18T22:34:28.006Z,0.42
2022-12-18T22:37:29.885Z,0.72
2022-12-18T22:40:31.679Z,0.17
2022-12-18T22:43:33.587Z,0.51
2022-12-18T22:46:36.578Z,0.19
2022-12-18T22:49:38.838Z,-0.66
2022-12-18T22:52:40.814Z,-0.04
2022-12-18T22:55:42.664Z,0.18
2022-12-18T22:58:47.003Z,-0.39
2022-12-18T23:01:49.255Z,0.68
2022-12-18T23:04:52.726Z,-0.34
2022-12-18T23:07:54.504Z,-0.07
2022-12-18T23:10:56.584Z,-1.33
2022-12-18T23:13:58.850Z,-1.55
2022-12-18T23:17:00.758Z,-1.47
2022-12-18T23:20:02.648Z,-1.13
2022-12-18T23:23:04.442Z,-0.69
2022-12-18T23:26:07.960Z,-0.30
2022-12-18T23:29:09.854Z,-0.74
2022-12-18T23:32:11.694Z,-0.62
2022-12-18T23:35:15.834Z,-0.37
2022-12-18T23:38:17.956Z,-1.01
2022-12-18T23:41:20.297Z,-0.85
2022-12-18T23:44:22.229Z,-1.03
2022-12-18T23:47:24.116Z,-0.76
2022-12-18T23:50:29.438Z,-0.87
2022-12-18T23:53:31.902Z,-1.81
2022-12-18T23:56:35.828Z,-1.43
2022-12-18T23:59:37.772Z,-1.03
